Hanalei, HI

6:00 AM HST on October 31, 2014 (GMT -1000)
Barking Sands PMRF | Change Station
CLOSE
Current Station
Airport
Location: Barking Sands,
Elevation: 13 ft
Nearby Weather Stations
Active Advisory: High Surf Advisory

Elev 13 ft 22.02 °N, 159.79 °W | Updated 4 minutes ago

Clear
Clear
71 °F
Feels Like 71 °F
N
4
Wind Variable Wind from NE

Today
High -- | Low -- °F
--% Chance of Precip.
Yesterday
High -- | Low -- °F
Precip. -- in
6:41 AM 6:01 PM
First Quarter, 56% visible
Pressure 30.04 in
Visibility 10.0 miles
Clouds Clear
Dew Point 67 °F
Humidity 87%
Rainfall 0.00 in
Snow Depth Not available.
UV 0 out of 12
Pollen Not available.
Air Quality Not available.
Flu Activity Not available.
METAR PHBK 311556Z AUTO 04003KT 10SM CLR 22/19 A3004 RMK AO2 SLP173 T02170194

More Conditions Fewer Conditions

Pressure 30.04 in
Visibility 10.0 miles
Clouds Clear
Dew Point 67 °F
Humidity 87%
Rainfall 0.00 in
Snow Depth Not available.
UV 0 out of 12
Pollen Not available.
Air Quality Not available.
Flu Activity Not available.
METAR PHBK 311556Z AUTO 04003KT 10SM CLR 22/19 A3004 RMK AO2 SLP173 T02170194

More Conditions Fewer Conditions

10-Day Weather Forecast

Almanac

Astronomy

Oct. 31, 2014 Rise Set
Actual Time
Civil Twilight
Nautical Twilight
Astronomical Twilight
Moon
Length of Visible Light
Length of Day
Tomorrow will be .
, % of the Moon is Illuminated

Today's Extremes

State Highs State Lows

Community

WunderPhotos

Upload Photos

1,766,649 photos uploaded!

WunderBlogs® & News

Nearby

Air Quality

  Air Quality AQ Index Pollutant
Not available.

Snow Depth

Station Depth Elevation

Earthquake Activity

City Distance Mag. Time & Date
Minimum magnitude displayed is 2.5.

Coastal Water Temperatures

Place Temperature

Nearby Weather Stations